Decoded METAR's for Botswana

 
 
Print Page

Back to Weather Page

 
 

Francistown - Botswana, FBFT

ADDS - TAFS form results

Aviation Digital Data Service (ADDS)

Output produced by TAFs form (0555 UTC 25 February 2018)
found at http://aviationweather.gov/adds/tafs/
 
METAR text: FBFT 250500Z 13004KT 9999 BKN015 21/20 Q1014
Conditions at: FBFT (FRANCISTOWN , BW) observed 0500 UTC 25 February 2018
Temperature: 21.0°C (70°F)
Dewpoint: 20.0°C (68°F) [RH = 94%]
Pressure (altimeter): 29.94 inches Hg (1014.0 mb)
Winds: from the SE (130 degrees) at 5 MPH (4 knots; 2.1 m/s)
Visibility: 6 or more miles (10+ km)
Ceiling: 1500 feet AGL
Clouds: broken clouds at 1500 feet AGL
Weather: no significant weather observed at this time

Array
Ghanzi - Botswana, FBGZ

ADDS - TAFS form results

Aviation Digital Data Service (ADDS)

Output produced by TAFs form (0555 UTC 25 February 2018)
found at http://aviationweather.gov/adds/tafs/
 
You entered "FBGZ"

Sorry, either there are no data available for your request or you did not enter any valid ICAO airport abbreviations.

See stations.txt for a list of known METAR and TAF locations. Then go back to the ADDS METARs or TAFs page and try again
 
Please try again and, if problems persist, then send mail to ncep.awc.adds@noaa.gov
Array
Kasane - Botswana, FBKE

ADDS - TAFS form results

Aviation Digital Data Service (ADDS)

Output produced by TAFs form (0555 UTC 25 February 2018)
found at http://aviationweather.gov/adds/tafs/
 
You entered "FBKE"

Sorry, either there are no data available for your request or you did not enter any valid ICAO airport abbreviations.

See stations.txt for a list of known METAR and TAF locations. Then go back to the ADDS METARs or TAFs page and try again
 
Please try again and, if problems persist, then send mail to ncep.awc.adds@noaa.gov
Array
Maun - Botswana, FBMN

ADDS - TAFS form results

Aviation Digital Data Service (ADDS)

Output produced by TAFs form (0555 UTC 25 February 2018)
found at http://aviationweather.gov/adds/tafs/
 
METAR text: FBMN 250500Z 15005KT 9999 OVC020 FEW030CB 20/20 Q1013
Conditions at: FBMN (MAUN , BW) observed 0500 UTC 25 February 2018
Temperature: 20.0°C (68°F)
Dewpoint: 20.0°C (68°F) [RH = 100%]
Pressure (altimeter): 29.91 inches Hg (1013.0 mb)
Winds: from the SSE (150 degrees) at 6 MPH (5 knots; 2.6 m/s)
Visibility: 6 or more miles (10+ km)
Ceiling: 2000 feet AGL
Clouds: overcast cloud deck at 2000 feet AGL
few clouds at 3000 feet AGL
Weather: no significant weather observed at this time

Array
Gaberone Sir Seretsi Kama - Botswana, FBSK

ADDS - TAFS form results

Aviation Digital Data Service (ADDS)

Output produced by TAFs form (0555 UTC 25 February 2018)
found at http://aviationweather.gov/adds/tafs/
 
METAR text: FBSK 250400Z 20003KT 170V270 3000 BR 18/18 Q1014 NOSIG
Conditions at: FBSK (SIR SERETSE KHAM, BW) observed 0400 UTC 25 February 2018
Temperature: 18.0°C (64°F)
Dewpoint: 18.0°C (64°F) [RH = 100%]
Pressure (altimeter): 29.94 inches Hg (1014.0 mb)
Winds: from the SSW (200 degrees) at 3 MPH (3 knots; 1.6 m/s)
Visibility: 1.86 miles (2.99 km)
Ceiling: unknown
Clouds: missing
Weather: BR  (mist)

Array
Selebi Phikwe - Botswana, FBSP

ADDS - TAFS form results

Aviation Digital Data Service (ADDS)

Output produced by TAFs form (0555 UTC 25 February 2018)
found at http://aviationweather.gov/adds/tafs/
 
METAR text: FBSP 250500Z 00000KT CAVOK 21/20 Q1013
Conditions at: FBSP (SELEBI PHIKWE , BW) observed 0500 UTC 25 February 2018
Temperature: 21.0°C (70°F)
Dewpoint: 20.0°C (68°F) [RH = 94%]
Pressure (altimeter): 29.91 inches Hg (1013.0 mb)
Winds: calm
Visibility: 6 or more miles (10+ km)
Ceiling: ceiling and visibility are OK
Clouds: unknown
Weather: no significant weather observed at this time

Array